Time;durP1;ratioP1;P1;durP2;ratioP2;P2;SDS_P1;SDS_P2;PMS_P1;PMS_P2;Temp;Humidity;BMP_temperature;BMP_pressure;BME280_temperature;BME280_humidity;BME280_pressure;Samples;Min_cycle;Max_cycle;Signal;HPM_P1;HPM_P2
2024/01/24 00:01:45;;;;;;;2.58;0.82;;;;;;;9.64;100.00;100386.91;5037695;28;20049;-81
2024/01/24 00:04:12;;;;;;;1.85;0.70;;;;;;;9.68;100.00;100378.16;5008580;28;20041;-82
2024/01/24 00:06:38;;;;;;;2.55;0.60;;;;;;;9.67;100.00;100358.13;5027220;28;20056;-82
2024/01/24 00:09:05;;;;;;;2.78;0.68;;;;;;;9.66;100.00;100354.66;5009506;28;20038;-81
2024/01/24 00:11:34;;;;;;;0.95;0.82;;;;;;;9.80;100.00;100348.41;5043385;28;20033;-82
2024/01/24 00:14:00;;;;;;;1.77;1.00;;;;;;;9.79;100.00;100350.19;5058655;28;20103;-81
2024/01/24 00:16:27;;;;;;;1.10;0.82;;;;;;;9.80;100.00;100349.28;5031820;28;20115;-81
2024/01/24 00:18:54;;;;;;;1.50;0.90;;;;;;;9.83;100.00;100351.88;5045368;28;20711;-82
2024/01/24 00:21:20;;;;;;;0.52;0.50;;;;;;;9.90;100.00;100366.59;5047380;28;20709;-82
2024/01/24 00:23:47;;;;;;;2.08;0.80;;;;;;;9.97;100.00;100354.31;5026570;28;20144;-81
2024/01/24 00:26:14;;;;;;;1.25;0.60;;;;;;;9.98;100.00;100335.13;5018673;28;20064;-81
2024/01/24 00:28:40;;;;;;;3.05;0.90;;;;;;;9.93;100.00;100342.16;5028471;28;20064;-81
2024/01/24 00:31:07;;;;;;;1.80;0.70;;;;;;;9.93;100.00;100314.28;5023047;28;20099;-82
2024/01/24 00:33:38;;;;;;;0.70;0.63;;;;;;;9.98;100.00;100314.22;5030990;28;20114;-80
2024/01/24 00:36:05;;;;;;;2.72;0.77;;;;;;;10.00;100.00;100327.25;5033485;28;20045;-81
2024/01/24 00:38:31;;;;;;;0.60;0.60;;;;;;;10.08;100.00;100338.53;5031944;28;20044;-82
2024/01/24 00:41:01;;;;;;;0.43;0.43;;;;;;;10.09;100.00;100335.03;5011750;28;20079;-81
2024/01/24 00:43:27;;;;;;;0.73;0.40;;;;;;;10.12;100.00;100310.56;5023029;28;20124;-81
2024/01/24 00:45:54;;;;;;;0.55;0.55;;;;;;;10.07;100.00;100281.88;5034756;28;20885;-81
2024/01/24 00:48:21;;;;;;;0.43;0.43;;;;;;;10.07;100.00;100276.63;5051008;28;20045;-81
2024/01/24 00:50:47;;;;;;;0.38;0.38;;;;;;;10.04;100.00;100229.63;5028550;28;20053;-82
2024/01/24 00:53:20;;;;;;;3.45;0.20;;;;;;;10.06;100.00;100246.13;5026014;28;20094;-82
2024/01/24 00:55:48;;;;;;;0.73;0.73;;;;;;;10.07;100.00;100250.47;5036051;28;20084;-84
2024/01/24 00:58:14;;;;;;;0.40;0.40;;;;;;;10.05;100.00;100253.13;5033137;28;20060;-83
2024/01/24 01:00:41;;;;;;;1.40;0.75;;;;;;;10.09;100.00;100244.34;5018565;28;20057;-82
2024/01/24 01:03:08;;;;;;;0.45;0.28;;;;;;;10.12;100.00;100245.16;5054487;28;20190;-82
2024/01/24 01:05:38;;;;;;;0.47;0.47;;;;;;;10.20;100.00;100257.25;5020361;28;20045;-83
2024/01/24 01:08:08;;;;;;;0.20;0.20;;;;;;;10.22;100.00;100262.47;5037594;28;20044;-82
2024/01/24 01:10:36;;;;;;;0.30;0.30;;;;;;;10.22;100.00;100255.50;5033146;28;20090;-83
2024/01/24 01:13:05;;;;;;;0.85;0.25;;;;;;;10.38;100.00;100250.94;5039907;28;20490;-82
2024/01/24 01:15:37;;;;;;;0.63;0.40;;;;;;;10.44;100.00;100255.22;5015888;28;20388;-82
2024/01/24 01:18:04;;;;;;;1.08;0.40;;;;;;;10.48;100.00;100261.28;5031913;28;20058;-83
2024/01/24 01:20:31;;;;;;;0.47;0.30;;;;;;;10.50;100.00;100269.97;5046798;28;20457;-82
2024/01/24 01:22:58;;;;;;;1.80;0.45;;;;;;;10.53;100.00;100244.63;5014838;28;20505;-82
2024/01/24 01:25:24;;;;;;;0.32;0.30;;;;;;;10.55;100.00;100258.53;5032059;28;20072;-82
2024/01/24 01:27:51;;;;;;;0.52;0.30;;;;;;;10.58;100.00;100266.34;5019022;28;20520;-81
2024/01/24 01:30:18;;;;;;;1.33;0.38;;;;;;;10.56;100.00;100236.72;5055584;28;20553;-81
2024/01/24 01:32:44;;;;;;;0.73;0.68;;;;;;;10.59;100.00;100251.50;5033320;28;20048;-80
2024/01/24 01:35:11;;;;;;;0.45;0.45;;;;;;;10.60;100.00;100245.41;5048582;28;20099;-83
2024/01/24 01:37:42;;;;;;;0.82;0.70;;;;;;;10.63;100.00;100245.34;5019268;28;20373;-84
2024/01/24 01:40:12;;;;;;;1.65;0.68;;;;;;;10.68;100.00;100250.50;5028890;28;20080;-81
2024/01/24 01:42:45;;;;;;;2.25;0.90;;;;;;;10.66;100.00;100260.13;5048225;28;20122;-83
2024/01/24 01:45:13;;;;;;;0.68;0.68;;;;;;;10.67;100.00;100254.00;5018260;28;20055;-83
2024/01/24 01:47:40;;;;;;;0.82;0.82;;;;;;;10.71;100.00;100240.84;5026831;28;20495;-82
2024/01/24 01:50:11;;;;;;;4.18;1.00;;;;;;;10.73;100.00;100219.88;5039142;28;20130;-82
2024/01/24 01:52:41;;;;;;;2.40;1.08;;;;;;;10.78;100.00;100230.28;5058129;28;20049;-81
2024/01/24 01:55:11;;;;;;;1.58;1.00;;;;;;;10.78;100.00;100245.97;5017526;28;20049;-81
2024/01/24 01:57:40;;;;;;;1.90;0.98;;;;;;;10.78;100.00;100232.88;5024112;28;20041;-82
2024/01/24 02:00:09;;;;;;;2.88;1.40;;;;;;;10.82;100.00;100216.22;5042225;28;20053;-82
2024/01/24 02:02:40;;;;;;;1.00;1.00;;;;;;;10.82;100.00;100230.22;5060878;28;20068;-83
2024/01/24 02:05:07;;;;;;;12.00;1.63;;;;;;;10.83;100.00;100236.28;5044756;28;20681;-82
2024/01/24 02:07:34;;;;;;;1.02;1.02;;;;;;;10.88;100.00;100209.13;5011936;28;20041;-82
2024/01/24 02:10:00;;;;;;;0.63;0.63;;;;;;;10.88;100.00;100219.59;5035567;28;20523;-82
2024/01/24 02:12:27;;;;;;;1.38;1.05;;;;;;;10.87;100.00;100210.03;5034366;28;20080;-82
2024/01/24 02:14:53;;;;;;;3.38;0.90;;;;;;;10.87;100.00;100194.34;5050971;28;20087;-82
2024/01/24 02:17:23;;;;;;;2.08;0.85;;;;;;;10.90;100.00;100198.66;5035128;28;20666;-82
2024/01/24 02:19:49;;;;;;;1.35;0.93;;;;;;;10.95;100.00;100201.19;5033589;28;20069;-81
2024/01/24 02:22:16;;;;;;;2.03;0.82;;;;;;;11.04;100.00;100194.03;5048637;28;20052;-82
2024/01/24 02:24:42;;;;;;;1.40;0.57;;;;;;;11.08;100.00;100185.22;5026055;28;20054;-82
2024/01/24 02:27:09;;;;;;;1.90;1.10;;;;;;;11.06;100.00;100187.00;5038440;28;20547;-81
2024/01/24 02:29:36;;;;;;;1.35;1.20;;;;;;;11.15;100.00;100177.25;5028352;28;20132;-82
2024/01/24 02:32:03;;;;;;;1.13;1.02;;;;;;;11.11;100.00;100184.28;5024297;28;20077;-81
2024/01/24 02:34:29;;;;;;;1.67;1.00;;;;;;;11.05;100.00;100187.03;5027161;28;20140;-82
2024/01/24 02:36:56;;;;;;;1.30;0.90;;;;;;;10.96;100.00;100192.44;4995450;28;20056;-81
2024/01/24 02:39:25;;;;;;;1.20;1.10;;;;;;;10.96;100.00;100188.03;5025134;28;20153;-83
2024/01/24 02:41:53;;;;;;;1.92;0.95;;;;;;;10.87;100.00;100193.44;5031204;28;20053;-83
2024/01/24 02:44:19;;;;;;;0.77;0.77;;;;;;;10.88;100.00;100159.38;5024788;28;20136;-82
2024/01/24 02:46:46;;;;;;;3.38;1.65;;;;;;;10.90;100.00;100167.22;5020684;28;20046;-83
2024/01/24 02:49:14;;;;;;;1.08;0.98;;;;;;;10.89;100.00;100168.13;5035964;28;20486;-84
2024/01/24 02:51:40;;;;;;;1.38;0.93;;;;;;;10.91;100.00;100148.88;5051663;28;20064;-81
2024/01/24 02:54:07;;;;;;;0.50;0.50;;;;;;;11.03;100.00;100162.59;5019384;28;20046;-83
2024/01/24 02:56:35;;;;;;;1.05;1.00;;;;;;;11.09;100.00;100172.97;5040264;28;20117;-82
2024/01/24 02:59:04;;;;;;;1.65;0.50;;;;;;;11.02;100.00;100168.75;5013335;28;20041;-80
2024/01/24 03:01:31;;;;;;;1.20;0.57;;;;;;;11.03;100.00;100176.59;5012201;28;20505;-82
2024/01/24 03:03:57;;;;;;;0.65;0.47;;;;;;;11.06;100.00;100178.28;5034789;28;20053;-81
2024/01/24 03:06:24;;;;;;;0.68;0.65;;;;;;;11.13;100.00;100172.03;5057515;28;20710;-82
2024/01/24 03:08:56;;;;;;;1.08;0.43;;;;;;;11.17;100.00;100163.22;5027167;28;20046;-83
2024/01/24 03:11:26;;;;;;;0.63;0.45;;;;;;;11.22;100.00;100139.53;5028402;28;20100;-83
2024/01/24 03:13:55;;;;;;;2.00;0.75;;;;;;;11.23;100.00;100134.28;5008688;28;20042;-82
2024/01/24 03:16:22;;;;;;;0.55;0.50;;;;;;;11.19;100.00;100137.84;5034937;28;20042;-82
2024/01/24 03:18:48;;;;;;;1.48;0.45;;;;;;;11.28;100.00;100117.59;5012469;28;20090;-83
2024/01/24 03:21:17;;;;;;;0.75;0.40;;;;;;;11.31;100.00;100118.41;5032651;28;20091;-82
2024/01/24 03:23:45;;;;;;;0.85;0.50;;;;;;;11.31;100.00;100123.63;5032894;28;20060;-81
2024/01/24 03:26:13;;;;;;;0.40;0.40;;;;;;;11.33;100.00;100114.00;5052313;28;20409;-82
2024/01/24 03:28:39;;;;;;;3.47;0.73;;;;;;;11.34;100.00;100102.63;5033572;28;20041;-81
2024/01/24 03:31:06;;;;;;;0.50;0.50;;;;;;;11.38;100.00;100101.66;5046955;28;20041;-84
2024/01/24 03:33:33;;;;;;;1.02;0.32;;;;;;;11.41;100.00;100100.75;5047939;28;20041;-80
2024/01/24 03:36:03;;;;;;;0.77;0.77;;;;;;;11.39;100.00;100106.00;5025895;28;20036;-82
2024/01/24 03:38:32;;;;;;;1.58;0.68;;;;;;;11.46;100.00;100100.63;5045552;28;20108;-82
2024/01/24 03:40:58;;;;;;;1.10;0.60;;;;;;;11.49;100.00;100096.19;5056795;28;20041;-81
2024/01/24 03:43:26;;;;;;;0.90;0.90;;;;;;;11.56;100.00;100076.81;5014471;28;20045;-82
2024/01/24 03:45:53;;;;;;;1.35;1.25;;;;;;;11.66;100.00;100084.47;5031098;28;20475;-80
2024/01/24 03:48:19;;;;;;;1.67;1.27;;;;;;;11.73;100.00;100080.78;5025405;28;20080;-82
2024/01/24 03:50:46;;;;;;;0.65;0.65;;;;;;;11.75;100.00;100079.00;5034585;28;20128;-82
2024/01/24 03:53:13;;;;;;;3.22;2.92;;;;;;;11.74;100.00;100072.03;5053153;28;20045;-83
2024/01/24 03:55:40;;;;;;;2.75;1.55;;;;;;;11.77;100.00;100061.47;5033730;28;21059;-81
2024/01/24 03:58:06;;;;;;;1.50;1.40;;;;;;;11.80;100.00;100052.66;5035822;28;20740;-82
2024/01/24 04:00:33;;;;;;;2.38;1.55;;;;;;;11.83;100.00;100052.63;5014219;28;20455;-81
2024/01/24 04:03:00;;;;;;;2.05;1.83;;;;;;;11.84;100.00;100043.84;5054221;28;20073;-83
2024/01/24 04:05:26;;;;;;;2.08;1.88;;;;;;;11.89;100.00;100042.84;5046379;28;20141;-83
2024/01/24 04:07:59;;;;;;;1.80;1.70;;;;;;;11.82;100.00;100046.50;5047577;28;20048;-83
2024/01/24 04:10:26;;;;;;;1.63;1.60;;;;;;;11.81;100.00;100036.03;5044955;28;20040;-82
2024/01/24 04:12:55;;;;;;;4.40;1.92;;;;;;;11.75;100.00;100035.28;5063243;28;20110;-81
2024/01/24 04:15:24;;;;;;;3.45;2.53;;;;;;;11.78;100.00;100047.47;5041047;28;20075;-82
2024/01/24 04:17:49;;;;;;;4.13;1.88;;;;;;;11.74;100.00;100057.16;5046367;28;20048;-81
2024/01/24 04:20:16;;;;;;;5.88;1.70;;;;;;;11.88;100.00;100054.22;5025693;28;20045;-80
2024/01/24 04:22:44;;;;;;;1.80;1.70;;;;;;;11.97;100.00;100050.56;5015280;28;20052;-82
2024/01/24 04:25:11;;;;;;;1.58;1.33;;;;;;;12.05;100.00;100061.72;5058792;28;20049;-81
2024/01/24 04:27:40;;;;;;;5.95;2.80;;;;;;;11.96;100.00;100076.81;5028556;28;20053;-81
2024/01/24 04:30:08;;;;;;;1.58;1.48;;;;;;;11.91;100.00;100069.03;5045344;28;20098;-82
2024/01/24 04:32:35;;;;;;;2.05;1.13;;;;;;;11.86;100.00;100060.41;5023607;28;20572;-83
2024/01/24 04:35:01;;;;;;;4.28;1.60;;;;;;;11.80;100.00;100035.19;5029324;28;20041;-82
2024/01/24 04:37:31;;;;;;;2.50;1.45;;;;;;;11.82;100.00;100046.50;5031209;28;20403;-82
2024/01/24 04:40:01;;;;;;;0.95;0.95;;;;;;;11.95;100.00;100067.19;5061756;28;20049;-82
2024/01/24 04:42:28;;;;;;;1.00;0.95;;;;;;;11.90;100.00;100051.56;5027069;28;20551;-82
2024/01/24 04:44:55;;;;;;;0.80;0.80;;;;;;;11.88;100.00;100056.84;5025159;28;20522;-83
2024/01/24 04:47:21;;;;;;;1.77;1.30;;;;;;;11.79;100.00;100046.56;5041470;28;20045;-81
2024/01/24 04:49:48;;;;;;;1.67;1.58;;;;;;;11.82;100.00;100028.13;5043091;28;20150;-83
2024/01/24 04:52:14;;;;;;;1.77;0.70;;;;;;;11.71;100.00;100032.78;5014430;28;20080;-83
2024/01/24 04:54:41;;;;;;;0.85;0.85;;;;;;;11.74;100.00;100046.66;5046827;28;20053;-83
2024/01/24 04:57:08;;;;;;;0.75;0.75;;;;;;;11.72;100.00;100040.63;5045994;28;20037;-82
2024/01/24 04:59:35;;;;;;;0.35;0.35;;;;;;;11.81;100.00;100060.53;5046783;28;20041;-83
2024/01/24 05:02:05;;;;;;;2.75;0.45;;;;;;;11.73;100.00;100117.50;5028513;28;20103;-83
2024/01/24 05:04:32;;;;;;;4.25;1.58;;;;;;;11.08;100.00;100116.22;5011559;28;20675;-83
2024/01/24 05:06:59;;;;;;;10.18;2.75;;;;;;;10.16;100.00;100129.19;5064441;28;20064;-85
2024/01/24 05:09:28;;;;;;;2.75;1.02;;;;;;;9.73;100.00;100112.38;5046935;28;20040;-84
2024/01/24 05:11:55;;;;;;;5.45;0.95;;;;;;;9.35;100.00;100119.84;5031743;28;20671;-85
2024/01/24 05:14:21;;;;;;;5.75;1.40;;;;;;;9.24;100.00;100126.94;5047762;28;20044;-84
2024/01/24 05:16:49;;;;;;;8.00;1.25;;;;;;;9.29;100.00;100135.59;5030423;28;20094;-85
2024/01/24 05:19:16;;;;;;;5.88;1.13;;;;;;;9.38;100.00;100125.03;5032978;28;20045;-82
2024/01/24 05:21:48;;;;;;;5.47;1.23;;;;;;;9.44;100.00;100138.00;5041742;28;20061;-84
2024/01/24 05:24:15;;;;;;;3.30;1.45;;;;;;;9.49;100.00;100156.25;5026975;28;20045;-85
2024/01/24 05:26:48;;;;;;;4.70;2.15;;;;;;;9.47;100.00;100160.63;5041229;28;20052;-86
2024/01/24 05:29:15;;;;;;;7.00;0.98;;;;;;;9.56;100.00;100138.75;5051423;28;20041;-86
2024/01/24 05:31:49;;;;;;;1.75;1.17;;;;;;;9.60;100.00;100162.19;5061532;28;20064;-87
2024/01/24 05:34:16;;;;;;;1.48;0.70;;;;;;;9.70;100.00;100175.13;5032006;28;20137;-85
2024/01/24 05:36:46;;;;;;;2.08;0.65;;;;;;;9.77;100.00;100169.81;5061628;28;20055;-86
2024/01/24 05:39:15;;;;;;;2.28;0.60;;;;;;;9.83;100.00;100189.78;5044405;28;20099;-86
2024/01/24 05:41:43;;;;;;;0.43;0.40;;;;;;;9.91;100.00;100205.38;5049497;28;20163;-85
2024/01/24 05:44:12;;;;;;;0.88;0.30;;;;;;;10.01;100.00;100206.09;5049426;28;20052;-85
2024/01/24 05:46:39;;;;;;;5.93;0.55;;;;;;;10.12;100.00;100203.31;5048984;28;20037;-85
2024/01/24 05:49:08;;;;;;;2.10;0.50;;;;;;;10.30;100.00;100179.53;5049894;28;20037;-84
2024/01/24 05:51:36;;;;;;;1.33;0.38;;;;;;;10.33;100.00;100170.78;5045534;28;20044;-84
2024/01/24 05:54:04;;;;;;;2.17;0.60;;;;;;;10.51;100.00;100169.66;5012889;28;20099;-81
2024/01/24 05:56:30;;;;;;;2.40;0.60;;;;;;;10.65;100.00;100182.47;5028325;28;20098;-80
2024/01/24 05:58:57;;;;;;;4.07;1.00;;;;;;;10.68;100.00;100180.69;5029390;28;20048;-81
2024/01/24 06:01:26;;;;;;;2.75;1.10;;;;;;;10.72;100.00;100169.28;5025626;28;20053;-81
2024/01/24 06:03:55;;;;;;;2.88;0.90;;;;;;;10.80;100.00;100173.53;5039617;28;20083;-80
2024/01/24 06:06:29;;;;;;;4.72;0.90;;;;;;;10.76;100.00;100173.56;5028418;28;20144;-82
2024/01/24 06:08:56;;;;;;;3.72;0.90;;;;;;;10.75;100.00;100202.38;5023615;28;20044;-80
2024/01/24 06:11:25;;;;;;;3.15;1.70;;;;;;;10.76;100.00;100183.19;5024425;28;20068;-82
2024/01/24 06:13:53;;;;;;;7.50;0.88;;;;;;;10.77;100.00;100195.38;5026304;28;20811;-79
2024/01/24 06:16:20;;;;;;;4.97;0.77;;;;;;;10.79;100.00;100177.88;5030226;28;20051;-80
2024/01/24 06:18:47;;;;;;;5.43;0.63;;;;;;;10.79;100.00;100167.41;5010433;28;20401;-80
2024/01/24 06:21:14;;;;;;;11.75;2.05;;;;;;;10.73;100.00;100172.78;5035287;28;20485;-79
2024/01/24 06:23:47;;;;;;;3.22;1.13;;;;;;;10.75;100.00;100189.28;4995295;28;20058;-82
2024/01/24 06:26:14;;;;;;;7.23;1.90;;;;;;;10.64;100.00;100192.09;5038819;28;20041;-82
2024/01/24 06:28:41;;;;;;;7.25;3.13;;;;;;;10.47;100.00;100226.41;4993045;28;20318;-83
2024/01/24 06:31:12;;;;;;;2.88;0.75;;;;;;;10.85;100.00;100224.06;5036485;28;20501;-81
2024/01/24 06:33:39;;;;;;;6.03;1.40;;;;;;;10.63;100.00;100234.88;5010094;28;20045;-81
2024/01/24 06:36:06;;;;;;;2.45;0.98;;;;;;;10.48;100.00;100251.69;5034510;28;20143;-82
2024/01/24 06:38:33;;;;;;;6.47;1.35;;;;;;;10.39;100.00;100238.72;5002799;28;20239;-81
2024/01/24 06:41:00;;;;;;;3.97;0.85;;;;;;;10.29;100.00;100227.50;5007667;28;20050;-82
2024/01/24 06:43:27;;;;;;;5.78;1.50;;;;;;;10.23;100.00;100224.97;4999663;28;20048;-82
2024/01/24 06:45:55;;;;;;;5.05;1.10;;;;;;;10.28;100.00;100233.63;5008343;28;20060;-81
2024/01/24 06:48:22;;;;;;;6.22;1.73;;;;;;;10.15;100.00;100253.84;5011979;28;20463;-82
2024/01/24 06:50:49;;;;;;;13.38;2.53;;;;;;;10.05;100.00;100247.00;5009357;28;20076;-82
2024/01/24 06:53:15;;;;;;;5.97;1.83;;;;;;;10.10;100.00;100233.00;4991625;28;20604;-80
2024/01/24 06:55:44;;;;;;;17.42;2.33;;;;;;;10.13;100.00;100237.31;5045760;28;20131;-81
2024/01/24 06:58:10;;;;;;;5.53;1.85;;;;;;;10.18;100.00;100245.97;4992523;28;20619;-82
2024/01/24 07:00:40;;;;;;;6.72;1.70;;;;;;;10.22;100.00;100254.63;5005252;28;20164;-82
2024/01/24 07:03:06;;;;;;;7.70;1.67;;;;;;;10.24;100.00;100252.88;5041282;28;20041;-82
2024/01/24 07:05:33;;;;;;;8.32;1.40;;;;;;;10.22;100.00;100260.75;4993144;28;20125;-83
2024/01/24 07:07:59;;;;;;;10.00;2.15;;;;;;;10.20;100.00;100259.03;4997102;28;20141;-80
2024/01/24 07:10:30;;;;;;;5.97;1.92;;;;;;;10.13;100.00;100267.84;5026568;28;20048;-83
2024/01/24 07:12:57;;;;;;;14.23;2.85;;;;;;;9.96;100.00;100289.84;5010882;28;20057;-81
2024/01/24 07:15:23;;;;;;;12.52;3.38;;;;;;;10.00;100.00;100290.66;5032037;28;20102;-82
2024/01/24 07:17:50;;;;;;;13.98;2.42;;;;;;;9.98;100.00;100295.91;4992236;28;20060;-83
2024/01/24 07:20:26;;;;;;;12.35;3.05;;;;;;;9.90;100.00;100290.78;5028908;28;20256;-82
2024/01/24 07:22:53;;;;;;;15.35;3.33;;;;;;;9.94;100.00;100310.75;5033330;28;20049;-80
2024/01/24 07:25:21;;;;;;;17.00;3.70;;;;;;;10.02;100.00;100305.44;5050035;28;20059;-83
2024/01/24 07:27:56;;;;;;;13.15;3.88;;;;;;;10.09;100.00;100321.94;5010605;28;20056;-82
2024/01/24 07:30:23;;;;;;;16.02;5.15;;;;;;;10.15;100.00;100332.31;5031311;28;20041;-81
2024/01/24 07:32:50;;;;;;;19.38;3.50;;;;;;;10.14;100.00;100333.19;5031397;28;20060;-81
2024/01/24 07:35:19;;;;;;;13.73;2.80;;;;;;;10.04;100.00;100326.38;5012078;28;20053;-82
2024/01/24 07:37:50;;;;;;;9.18;2.45;;;;;;;9.92;100.00;100320.41;5014670;28;20052;-83
2024/01/24 07:40:17;;;;;;;12.98;3.78;;;;;;;9.96;100.00;100336.91;5019508;28;20048;-81
2024/01/24 07:42:43;;;;;;;16.85;3.47;;;;;;;10.08;100.00;100347.22;5033532;28;20102;-84
2024/01/24 07:45:11;;;;;;;17.70;3.28;;;;;;;10.18;100.00;100347.09;5047963;28;20120;-83
2024/01/24 07:47:37;;;;;;;21.45;5.03;;;;;;;10.26;100.00;100350.50;5047379;28;20133;-83
2024/01/24 07:50:04;;;;;;;12.98;3.45;;;;;;;10.24;100.00;100360.13;5062501;28;20101;-80
2024/01/24 07:52:31;;;;;;;20.52;5.97;;;;;;;10.22;100.00;100378.47;5041773;28;20061;-82
2024/01/24 07:55:00;;;;;;;18.70;3.88;;;;;;;10.24;100.00;100383.66;5028473;28;20056;-84
2024/01/24 07:57:26;;;;;;;18.95;3.97;;;;;;;10.17;100.00;100376.75;5017588;28;20044;-82
2024/01/24 07:59:53;;;;;;;20.10;4.28;;;;;;;10.07;100.00;100379.47;5047028;28;20048;-83
2024/01/24 08:02:20;;;;;;;16.80;5.43;;;;;;;9.96;100.00;100393.56;5031042;28;20060;-81
2024/01/24 08:04:46;;;;;;;25.73;4.55;;;;;;;9.99;100.00;100394.41;5055921;28;20075;-82
2024/01/24 08:07:13;;;;;;;20.70;5.15;;;;;;;10.10;100.00;100397.78;5024804;28;20053;-81
2024/01/24 08:09:39;;;;;;;18.70;4.80;;;;;;;10.15;100.00;100400.31;5030495;28;20404;-83
2024/01/24 08:12:07;;;;;;;21.58;3.90;;;;;;;10.16;100.00;100420.38;5041319;28;20446;-81
2024/01/24 08:14:34;;;;;;;16.15;4.53;;;;;;;10.21;100.00;100410.72;5040522;28;20060;-83
2024/01/24 08:17:10;;;;;;;26.35;3.97;;;;;;;10.24;100.00;100384.50;5042752;28;20438;-81
2024/01/24 08:19:38;;;;;;;18.15;4.25;;;;;;;10.39;100.00;100395.72;5037570;28;20067;-82
2024/01/24 08:22:05;;;;;;;12.73;3.53;;;;;;;10.40;100.00;100414.03;5054921;28;20061;-83
2024/01/24 08:24:32;;;;;;;21.98;5.00;;;;;;;10.44;100.00;100420.06;5036791;28;20116;-82
2024/01/24 08:26:58;;;;;;;13.43;3.90;;;;;;;10.49;100.00;100428.72;5040498;28;20564;-82
2024/01/24 08:29:26;;;;;;;19.85;6.30;;;;;;;10.54;100.00;100423.47;5038847;28;20123;-82
2024/01/24 08:31:58;;;;;;;20.50;4.57;;;;;;;10.49;100.00;100435.72;4881861;28;10000400;-82
2024/01/24 08:34:25;;;;;;;18.05;4.38;;;;;;;10.52;100.00;100427.84;5051267;28;20136;-83
2024/01/24 08:36:54;;;;;;;18.38;4.85;;;;;;;10.55;100.00;100439.13;5025925;28;20108;-83
2024/01/24 08:39:21;;;;;;;26.20;4.30;;;;;;;10.42;100.00;100441.03;5039088;28;20148;-82
2024/01/24 08:41:47;;;;;;;17.40;4.25;;;;;;;10.43;99.97;100434.06;5042083;28;20077;-83
2024/01/24 08:44:14;;;;;;;16.65;4.50;;;;;;;10.42;98.35;100445.41;5025445;28;20049;-83
2024/01/24 08:46:41;;;;;;;20.00;4.25;;;;;;;10.45;97.41;100447.13;5019605;28;20101;-83
2024/01/24 08:49:12;;;;;;;23.73;5.28;;;;;;;10.47;96.17;100441.00;5025354;28;20038;-84
2024/01/24 08:51:40;;;;;;;25.85;5.07;;;;;;;10.48;95.70;100460.16;5005072;28;20354;-83
2024/01/24 08:54:06;;;;;;;24.25;3.83;;;;;;;10.43;96.38;100462.84;5024488;28;20393;-82
2024/01/24 08:56:33;;;;;;;20.23;4.30;;;;;;;10.36;96.75;100477.72;5039187;28;20056;-83
2024/01/24 08:59:19;;;;;;;17.00;4.28;;;;;;;10.42;94.43;100485.53;5024840;28;20041;-83
2024/01/24 09:01:55;;;;;;;11.50;3.83;;;;;;;10.50;94.12;100469.72;5009161;28;20084;-83
2024/01/24 09:04:22;;;;;;;16.65;4.25;;;;;;;10.51;93.33;100466.22;5045016;28;20041;-82
2024/01/24 09:09:42;;;;;;;13.75;3.88;;;;;;;10.41;91.48;100475.06;5006494;28;20104;-83
2024/01/24 09:12:21;;;;;;;24.45;4.85;;;;;;;10.46;89.78;100469.81;5047522;28;20056;-81
2024/01/24 09:17:48;;;;;;;18.30;4.72;;;;;;;10.53;86.76;100488.03;5015297;28;20065;-83
2024/01/24 09:20:15;;;;;;;18.25;7.00;;;;;;;10.52;83.73;100478.44;5057397;28;20071;-81
2024/01/24 09:22:41;;;;;;;19.90;3.75;;;;;;;10.64;83.21;100501.00;5055769;28;20048;-83
2024/01/24 09:25:08;;;;;;;21.38;4.93;;;;;;;10.63;82.97;100499.25;5030944;28;20053;-82
2024/01/24 09:27:35;;;;;;;19.88;4.30;;;;;;;10.53;81.76;100488.03;5020762;28;20037;-81
2024/01/24 09:30:02;;;;;;;15.60;4.15;;;;;;;10.56;80.58;100495.00;5042994;28;20529;-83
2024/01/24 09:32:29;;;;;;;21.25;4.10;;;;;;;10.55;81.01;100503.72;5033344;28;20431;-82
2024/01/24 09:34:59;;;;;;;19.00;4.03;;;;;;;10.56;82.04;100501.06;5012401;28;20123;-84
2024/01/24 09:37:27;;;;;;;21.25;4.90;;;;;;;10.50;81.91;100493.28;5044049;28;20052;-83
2024/01/24 09:39:55;;;;;;;15.10;4.05;;;;;;;10.47;81.82;100503.81;5059064;28;20098;-83
2024/01/24 09:42:26;;;;;;;14.38;4.10;;;;;;;10.56;82.50;100513.31;5041189;28;20041;-83
2024/01/24 09:44:58;;;;;;;17.65;4.45;;;;;;;10.54;84.54;100522.91;5051108;28;20131;-82
2024/01/24 09:47:25;;;;;;;28.00;4.80;;;;;;;10.36;85.18;100511.75;5030196;28;20429;-81
2024/01/24 09:49:52;;;;;;;18.85;4.35;;;;;;;10.35;85.45;100527.44;5030941;28;20041;-82
2024/01/24 09:52:23;;;;;;;18.33;4.03;;;;;;;10.33;85.41;100523.97;5033037;28;20237;-82
2024/01/24 09:54:59;;;;;;;21.90;5.07;;;;;;;10.30;86.65;100534.47;5032976;28;20084;-82
2024/01/24 09:57:28;;;;;;;21.45;4.57;;;;;;;10.25;86.98;100534.53;5028606;28;20047;-84
2024/01/24 09:59:58;;;;;;;18.17;4.85;;;;;;;10.17;87.80;100537.22;5054976;28;20056;-81
2024/01/24 10:02:27;;;;;;;15.77;3.88;;;;;;;10.17;86.46;100524.13;5027654;28;20134;-83
2024/01/24 10:04:57;;;;;;;24.45;5.10;;;;;;;10.25;87.07;100551.06;5048354;28;20029;-82
2024/01/24 10:07:24;;;;;;;21.27;4.32;;;;;;;10.19;87.07;100545.03;5063918;28;20481;-82
2024/01/24 10:10:08;;;;;;;20.10;4.70;;;;;;;10.20;85.27;100545.00;5029090;28;20049;-84
2024/01/24 10:12:36;;;;;;;17.23;5.20;;;;;;;10.15;87.30;100546.81;5031833;28;20064;-81
2024/01/24 10:15:04;;;;;;;14.85;4.15;;;;;;;10.18;87.38;100548.53;5037676;28;20212;-84
2024/01/24 10:17:31;;;;;;;18.90;5.00;;;;;;;10.12;86.48;100551.19;5040192;28;20669;-83
2024/01/24 10:20:02;;;;;;;26.77;5.15;;;;;;;10.18;83.03;100559.88;5060138;28;20041;-83
2024/01/24 10:22:33;;;;;;;25.88;6.63;;;;;;;10.27;81.93;100564.13;5042704;28;20048;-81
2024/01/24 10:25:01;;;;;;;14.98;4.35;;;;;;;10.26;82.64;100572.88;5044172;28;20095;-83
2024/01/24 10:27:30;;;;;;;21.55;4.35;;;;;;;10.30;82.58;100569.34;5030262;28;20884;-82
2024/01/24 10:29:59;;;;;;;18.67;4.78;;;;;;;10.32;82.39;100566.72;5034959;28;20087;-82
2024/01/24 10:32:26;;;;;;;15.68;5.28;;;;;;;10.37;79.96;100554.50;5041018;28;20497;-82
2024/01/24 10:34:53;;;;;;;23.83;5.38;;;;;;;10.49;79.34;100591.00;5030125;28;20049;-83
2024/01/24 10:37:20;;;;;;;22.77;5.07;;;;;;;10.51;80.42;100567.47;5028150;28;20041;-83
2024/01/24 10:39:54;;;;;;;21.35;4.22;;;;;;;10.45;79.79;100568.38;5041324;28;20075;-83
2024/01/24 10:42:39;;;;;;;21.70;5.15;;;;;;;10.46;80.09;100562.25;5024206;28;20069;-82
2024/01/24 10:45:07;;;;;;;28.15;4.38;;;;;;;10.46;79.89;100575.34;5016890;28;20566;-84
2024/01/24 10:47:36;;;;;;;17.98;4.85;;;;;;;10.47;80.14;100570.97;5046029;28;20118;-83
2024/01/24 10:50:09;;;;;;;23.00;4.78;;;;;;;10.44;79.83;100582.31;5045162;28;20149;-82
2024/01/24 10:53:00;;;;;;;17.77;4.75;;;;;;;10.36;78.89;100571.94;5015207;28;20041;-81
2024/01/24 10:55:27;;;;;;;23.80;6.78;;;;;;;10.35;78.01;100593.75;5063429;28;20047;-83
2024/01/24 10:58:03;;;;;;;20.90;6.30;;;;;;;10.35;77.95;100564.06;5027529;28;20049;-82
2024/01/24 11:00:41;;;;;;;22.17;4.72;;;;;;;10.36;78.11;100579.78;5066369;28;20166;-83
2024/01/24 11:03:09;;;;;;;29.30;5.70;;;;;;;10.37;78.17;100596.38;5046911;28;20168;-83
2024/01/24 11:05:50;;;;;;;24.50;4.95;;;;;;;10.36;78.89;100587.63;5061410;28;20416;-82
2024/01/24 11:08:33;;;;;;;21.75;4.75;;;;;;;10.35;78.55;100588.53;5014141;28;20134;-84
2024/01/24 11:11:05;;;;;;;23.00;5.57;;;;;;;10.37;77.68;100586.75;5058652;28;20053;-83
2024/01/24 11:13:48;;;;;;;19.60;4.10;;;;;;;10.37;76.56;100573.66;5027893;28;20044;-83
2024/01/24 11:16:34;;;;;;;20.85;4.65;;;;;;;10.35;77.40;100600.69;5026794;28;20053;-83
2024/01/24 11:19:25;;;;;;;25.58;5.35;;;;;;;10.30;76.29;100586.78;5029026;28;20056;-82
2024/01/24 11:21:53;;;;;;;25.40;4.57;;;;;;;10.30;76.38;100589.41;5033603;28;21046;-82
2024/01/24 11:24:42;;;;;;;20.58;6.00;;;;;;;10.32;77.00;100606.81;5061868;28;20120;-83
2024/01/24 11:27:38;;;;;;;20.20;5.65;;;;;;;10.29;77.44;100616.47;5069120;28;20680;-81
2024/01/24 11:30:07;;;;;;;18.10;4.03;;;;;;;10.37;76.48;100619.91;5046987;28;20113;-82